• Join FlightAware (Why Join?)
  • Login
  • US Flag 
02:32AM EDT


 

Airport Tracker/Info


-or-


 

Live Flight TrackerFlight Track Log ✈ FLG4211 ✈ 23-Apr-2013 ✈ KDTW - KAZO

Flight Track Log - Related Links

Times and Time Zones

All times are in EDT time to prevent confusion due to time zone crossing. See the FLG4211 flight status page for this flight to view local times or setup timezone preferences in your user account.

Time Position Orientation Groundspeed Altitude Reporting Facility
EDT Latitude Longitude Course Direction KTS MPH feet Rate Location/Type
12:21PM 42.2036 -83.3556 275° West 148 170 1,300  Level Cleveland Center
12:21PM 42.1897 -83.3681 214° Southwest 169 194 2,400 2,100 Climbing FAA TRACON SMA TRACON (SMA)
12:22PM 42.1747 -83.3814 213° Southwest 175 201 3,200 2,280 Climbing FAA TRACON SMA TRACON (SMA)
12:22PM 42.1442 -83.4075 212° Southwest 219 252 4,700 2,280 Climbing FAA TRACON SMA TRACON (SMA)
12:23PM 42.1250 -83.4239 212° Southwest 243 280 5,500 2,700 Climbing FAA TRACON SMA TRACON (SMA)
12:23PM 42.1078 -83.4408 216° Southwest 251 289 6,400 3,180 Climbing Cleveland Center
12:24PM 42.2291 -83.8105 276° West  Level FlightAware Approximate
12:24PM 42.0992 -83.5328 263° West 268 308 9,700  Level Cleveland Center
12:24PM 42.1164 -83.5953 290° West 301 346 10,000 240 Climbing Cleveland Center
12:25PM 42.2369 -83.9262 275° West  Level FlightAware Approximate
12:25PM 42.1275 -83.6461 286° West 321 369 10,000  Level Cleveland Center
12:25PM 42.1425 -83.7114 287° West 331 381 10,200 1,620 Climbing Cleveland Center
12:26PM 42.2437 -84.0420 275° West  Level FlightAware Approximate
12:26PM 42.1686 -83.8219 288° West 357 411 12,500  Level Cleveland Center
12:27PM 42.1983 -83.9439 288° West 357 411 13,900 660 Climbing Cleveland Center
12:28PM 42.2303 -84.0633 290° West 357 411 13,900  Level Cleveland Center
12:29PM 42.2561 -84.1744 287° West 336 387 13,900 -60 Level Cleveland Center
12:30PM 42.2672 -84.2872 278° West 316 364 13,800 -600 Descending Cleveland Center
12:31PM 42.2650 -84.4106 269° West 316 364 12,700 -1,200 Descending Cleveland Center
12:32PM 42.2636 -84.5200 269° West 316 364 11,500 -1,320 Descending Cleveland Center
12:33PM 42.2600 -84.6208 267° West 295 339 10,100 -780 Descending Cleveland Center
12:34PM 42.2631 -84.7136 273° West 283 326 10,000 -60 Descending Cleveland Center
12:35PM 42.2611 -84.8200 269° West 283 326 10,000 -480 Level Cleveland Center
12:36PM 42.2681 -84.9189 275° West 278 320 9,100 -1,380 Descending Cleveland Center
12:37PM 42.2831 -85.0153 282° West 272 313 7,300 -1,800 Descending Cleveland Center
12:38PM 42.2983 -85.1033 283° West 256 295 5,500 -1,620 Descending Cleveland Center
12:39PM 42.3136 -85.1917 283° West 250 288 4,100 -780 Descending Cleveland Center
12:40PM 42.3289 -85.2800 283° West 245 282 4,000 -600 Descending Cleveland Center
12:42PM 42.3389 -85.4436 275° West 241 277 2,400 -900 Descending Chicago Center